Time;durP1;ratioP1;P1;durP2;ratioP2;P2;SDS_P1;SDS_P2;PMS_P1;PMS_P2;Temp;Humidity;BMP_temperature;BMP_pressure;BME280_temperature;BME280_humidity;BME280_pressure;Samples;Min_cycle;Max_cycle;Signal;HPM_P1;HPM_P2
2022/05/28 00:01:27;;;;;;;7.43;2.00;;;;;;;11.11;68.61;102005.97;10421216;28;20050;-81
2022/05/28 00:06:29;;;;;;;8.52;1.90;;;;;;;11.06;68.48;102008.34;10420047;28;20037;-80
2022/05/28 00:11:34;;;;;;;10.02;2.15;;;;;;;10.95;68.99;102010.47;10423354;28;20099;-81
2022/05/28 00:16:36;;;;;;;6.63;2.10;;;;;;;11.05;68.80;102010.88;10422817;28;20459;-81
2022/05/28 00:21:38;;;;;;;9.35;1.48;;;;;;;11.10;68.03;102004.19;10419990;28;20048;-81
2022/05/28 00:26:43;;;;;;;11.38;1.80;;;;;;;11.04;68.26;102004.84;10423939;28;20100;-81
2022/05/28 00:31:44;;;;;;;9.00;1.67;;;;;;;11.09;67.90;102002.47;10429011;28;20049;-81
2022/05/28 00:36:49;;;;;;;7.45;1.95;;;;;;;11.09;67.74;102000.75;10429949;28;20052;-81
2022/05/28 00:41:50;;;;;;;10.98;1.98;;;;;;;11.03;68.12;102010.81;10428657;28;20064;-81
2022/05/28 00:46:55;;;;;;;11.88;2.30;;;;;;;11.02;68.25;101998.72;10431553;28;20377;-82
2022/05/28 00:52:00;;;;;;;8.35;1.67;;;;;;;11.06;67.83;101982.56;10427779;28;20041;-81
2022/05/28 00:57:03;;;;;;;8.00;1.60;;;;;;;11.03;68.48;101985.03;10425623;28;20041;-81
2022/05/28 01:02:13;;;;;;;9.18;1.70;;;;;;;11.08;68.35;101975.78;10426633;28;20046;-81
2022/05/28 01:07:24;;;;;;;9.50;2.00;;;;;;;10.99;69.37;101967.66;10428357;28;20045;-81
2022/05/28 01:12:47;;;;;;;13.82;2.42;;;;;;;10.87;70.03;101967.16;10430603;28;20046;-81
2022/05/28 01:17:53;;;;;;;12.52;2.55;;;;;;;10.96;70.15;101952.06;10411167;28;20049;-81
2022/05/28 01:23:11;;;;;;;8.18;2.30;;;;;;;10.90;70.47;101951.81;10425287;28;20049;-81
2022/05/28 01:28:17;;;;;;;12.95;2.30;;;;;;;10.81;70.91;101956.59;10425542;28;20091;-81
2022/05/28 01:33:20;;;;;;;11.82;2.20;;;;;;;10.85;70.88;101958.47;10427841;28;20041;-81
2022/05/28 01:45:00;;;;;;;13.63;2.70;;;;;;;10.74;72.09;101961.50;10427007;28;20041;-81
2022/05/28 01:50:05;;;;;;;13.07;2.88;;;;;;;10.77;72.29;101961.59;10430239;28;20095;-81
2022/05/28 01:55:10;;;;;;;12.60;2.38;;;;;;;10.72;72.12;101968.28;10427084;28;20049;-81
2022/05/28 02:00:12;;;;;;;10.05;1.88;;;;;;;10.76;72.40;101959.84;10426442;28;20504;-80
2022/05/28 02:05:14;;;;;;;19.73;2.35;;;;;;;10.75;72.55;101968.41;10424820;28;20045;-81
2022/05/28 02:10:18;;;;;;;14.43;3.15;;;;;;;10.81;72.41;101964.31;10424655;28;20049;-81
2022/05/28 02:15:38;;;;;;;13.23;2.80;;;;;;;10.73;73.04;101974.28;10426745;28;20072;-81
2022/05/28 02:20:53;;;;;;;8.93;2.30;;;;;;;10.75;72.76;101978.72;10423776;28;20075;-81
2022/05/28 02:25:58;;;;;;;13.35;2.67;;;;;;;10.81;72.98;101977.22;10421970;28;20053;-81
2022/05/28 02:31:14;;;;;;;9.43;2.33;;;;;;;10.72;73.17;101973.44;10420997;28;20048;-81
2022/05/28 02:36:17;;;;;;;11.10;2.25;;;;;;;10.62;73.30;101982.47;10422687;28;20045;-81
2022/05/28 02:41:21;;;;;;;7.65;2.00;;;;;;;10.57;73.58;101973.66;10421547;28;20045;-81
2022/05/28 02:46:23;;;;;;;7.20;2.40;;;;;;;10.57;73.91;101978.81;10421988;28;20049;-81
2022/05/28 02:51:25;;;;;;;7.68;2.40;;;;;;;10.55;74.40;101969.25;10426514;28;20036;-80
2022/05/28 02:56:26;;;;;;;11.75;2.30;;;;;;;10.30;74.84;101979.31;10450738;28;20095;-80
2022/05/28 03:01:34;;;;;;;8.73;2.53;;;;;;;10.27;75.24;101975.72;10418408;28;20041;-81
2022/05/28 03:06:37;;;;;;;7.38;2.20;;;;;;;10.18;75.67;101983.03;10418280;28;20072;-81
2022/05/28 03:11:39;;;;;;;9.52;2.60;;;;;;;10.16;75.90;101981.28;10419749;28;20038;-81
2022/05/28 03:16:42;;;;;;;7.43;1.77;;;;;;;10.13;75.82;101985.41;10418215;28;20107;-81
2022/05/28 03:21:44;;;;;;;9.77;2.40;;;;;;;10.19;75.27;101985.72;10417404;28;20392;-81
2022/05/28 03:26:46;;;;;;;11.15;2.40;;;;;;;10.10;75.56;101990.44;10418968;28;20100;-81
2022/05/28 03:31:48;;;;;;;12.13;2.30;;;;;;;10.11;75.24;101992.19;10416619;28;20045;-81
2022/05/28 03:36:50;;;;;;;10.73;2.25;;;;;;;10.02;75.33;101994.34;10418444;28;20378;-81
2022/05/28 03:41:52;;;;;;;12.60;3.17;;;;;;;10.02;75.69;101996.94;10417928;28;20107;-81
2022/05/28 03:46:53;;;;;;;11.57;2.45;;;;;;;9.93;75.93;101999.97;10416288;28;20103;-80
2022/05/28 03:51:55;;;;;;;8.85;2.33;;;;;;;9.98;75.59;101998.47;10415860;28;20378;-80
2022/05/28 03:57:02;;;;;;;10.40;2.50;;;;;;;9.98;75.76;102006.19;10416631;28;20045;-81
2022/05/28 04:02:04;;;;;;;10.23;2.63;;;;;;;9.82;76.23;102005.50;10398811;28;20493;-81
2022/05/28 04:07:08;;;;;;;11.57;2.30;;;;;;;9.96;76.41;102024.16;10416832;28;20500;-81
2022/05/28 04:12:10;;;;;;;11.30;2.90;;;;;;;10.10;76.55;102029.94;10415953;28;20050;-80
2022/05/28 04:17:12;;;;;;;6.70;2.05;;;;;;;10.19;76.28;102026.00;10415073;28;20428;-80
2022/05/28 04:22:14;;;;;;;8.45;2.72;;;;;;;10.40;75.96;102029.59;10415308;28;20087;-81
2022/05/28 04:27:15;;;;;;;9.85;2.30;;;;;;;10.61;75.83;102033.94;10415449;28;20049;-81
2022/05/28 04:32:17;;;;;;;16.55;3.20;;;;;;;10.74;76.01;102030.19;10415176;28;20440;-80
2022/05/28 04:37:19;;;;;;;6.78;2.40;;;;;;;10.73;75.64;102037.06;10416404;28;20045;-80
2022/05/28 04:42:20;;;;;;;9.98;2.70;;;;;;;10.63;76.27;102045.19;10415951;28;20420;-80
2022/05/28 04:47:23;;;;;;;10.18;2.20;;;;;;;10.85;75.56;102043.53;10416649;28;20489;-81
2022/05/28 04:52:25;;;;;;;5.60;2.22;;;;;;;10.87;75.65;102037.63;10415037;28;20551;-80
2022/05/28 04:57:26;;;;;;;6.75;2.75;;;;;;;11.02;75.29;102045.16;10415970;28;20183;-80
2022/05/28 05:02:28;;;;;;;8.93;2.40;;;;;;;10.98;75.15;102043.28;10414130;28;20050;-80
2022/05/28 05:07:29;;;;;;;9.55;2.17;;;;;;;11.15;74.91;102043.06;10414724;28;20159;-80
2022/05/28 05:12:31;;;;;;;7.72;1.77;;;;;;;11.21;73.89;102038.16;10417209;28;20037;-80
2022/05/28 05:17:33;;;;;;;7.70;1.45;;;;;;;11.36;72.97;102046.53;10421591;28;20088;-81
2022/05/28 05:22:34;;;;;;;5.63;1.50;;;;;;;11.51;72.88;102042.81;10421773;28;20042;-80
2022/05/28 05:27:36;;;;;;;9.23;1.33;;;;;;;11.66;72.00;102045.16;10422041;28;20076;-80
2022/05/28 05:32:37;;;;;;;4.55;1.05;;;;;;;11.82;71.38;102041.47;10421749;28;20095;-80
2022/05/28 05:37:39;;;;;;;7.13;1.58;;;;;;;12.10;70.44;102051.19;10421504;28;20045;-80
2022/05/28 05:42:41;;;;;;;4.03;1.10;;;;;;;12.52;68.32;102058.78;10421020;28;20095;-81
2022/05/28 05:47:42;;;;;;;4.55;1.08;;;;;;;12.54;68.21;102056.28;10419301;28;20400;-80
2022/05/28 05:52:44;;;;;;;5.57;0.88;;;;;;;12.01;67.41;102062.06;10419951;28;20045;-81
2022/05/28 05:57:49;;;;;;;6.32;1.45;;;;;;;12.03;67.87;102062.97;10420786;28;20060;-81
2022/05/28 06:02:51;;;;;;;4.70;0.82;;;;;;;12.17;68.16;102060.06;10418568;28;20068;-80
2022/05/28 06:07:53;;;;;;;6.75;1.48;;;;;;;12.01;67.48;102064.66;10418870;28;20049;-80
2022/05/28 06:12:55;;;;;;;6.28;1.10;;;;;;;11.73;66.83;102073.84;10420386;28;20042;-79
2022/05/28 06:17:56;;;;;;;9.35;1.55;;;;;;;12.13;67.24;102071.09;10418217;28;20057;-80
2022/05/28 06:22:58;;;;;;;7.63;1.20;;;;;;;12.50;67.00;102069.88;10408728;28;20053;-80
2022/05/28 06:28:54;;;;;;;10.23;1.08;;;;;;;12.83;65.43;102065.06;10445049;28;20049;-79
2022/05/28 06:33:56;;;;;;;10.77;1.33;;;;;;;13.01;63.31;102069.97;10452027;28;20495;-79
2022/05/28 06:38:58;;;;;;;5.10;1.17;;;;;;;13.04;62.76;102069.19;10417502;28;20053;-80
2022/05/28 06:44:00;;;;;;;9.73;1.17;;;;;;;13.13;61.40;102058.31;10417065;28;20555;-81
2022/05/28 06:49:01;;;;;;;3.88;0.95;;;;;;;13.00;61.04;102068.22;10417200;28;20056;-80
2022/05/28 06:54:03;;;;;;;3.78;0.90;;;;;;;12.97;60.85;102070.72;10416770;28;20045;-81
2022/05/28 06:59:04;;;;;;;3.65;0.88;;;;;;;12.92;59.36;102069.66;10399985;28;20044;-80
2022/05/28 07:04:10;;;;;;;6.82;1.20;;;;;;;13.00;59.67;102073.38;10413787;28;20049;-80
2022/05/28 07:09:11;;;;;;;9.20;1.27;;;;;;;12.90;60.89;102092.03;10412892;28;20037;-81
2022/05/28 07:14:13;;;;;;;8.00;1.02;;;;;;;12.66;60.22;102085.13;10411167;28;20045;-80
2022/05/28 07:19:14;;;;;;;3.47;0.90;;;;;;;12.60;60.69;102086.59;10425765;28;20045;-80
2022/05/28 07:24:16;;;;;;;7.43;1.30;;;;;;;13.93;60.19;102076.44;10406634;28;20049;-80
2022/05/28 07:29:40;;;;;;;8.15;1.85;;;;;;;13.41;58.75;102075.66;10375236;28;20108;-80
2022/05/28 07:34:41;;;;;;;8.13;1.35;;;;;;;14.28;58.21;102078.34;10414339;28;20041;-80
2022/05/28 07:39:43;;;;;;;7.60;1.05;;;;;;;14.59;55.69;102085.28;10411686;28;20041;-80
2022/05/28 07:44:44;;;;;;;6.80;1.10;;;;;;;14.47;56.04;102084.94;10400188;28;20041;-80
2022/05/28 07:49:46;;;;;;;7.78;1.08;;;;;;;13.33;58.55;102077.97;10410937;28;20045;-81
2022/05/28 07:54:48;;;;;;;5.03;0.98;;;;;;;13.14;59.39;102097.16;10413764;28;20053;-81
2022/05/28 07:59:49;;;;;;;5.65;1.05;;;;;;;14.39;57.40;102086.44;10413476;28;20049;-80
2022/05/28 08:04:51;;;;;;;6.65;1.10;;;;;;;15.06;54.71;102094.38;10412687;28;20093;-80
2022/05/28 08:09:56;;;;;;;9.68;2.22;;;;;;;15.50;55.59;102084.22;10411468;28;20046;-80
2022/05/28 08:14:58;;;;;;;4.38;1.10;;;;;;;15.49;51.68;102071.19;10412908;28;20103;-81
2022/05/28 08:20:00;;;;;;;8.15;1.15;;;;;;;15.29;50.26;102079.38;10410520;28;20543;-80
2022/05/28 08:25:03;;;;;;;5.95;0.95;;;;;;;15.42;44.53;102084.88;10413040;28;20061;-83
2022/05/28 08:30:08;;;;;;;5.43;1.02;;;;;;;15.85;44.78;102068.63;10408598;28;20489;-80
2022/05/28 08:35:09;;;;;;;3.92;1.00;;;;;;;15.39;46.03;102075.28;10409475;28;20049;-79
2022/05/28 08:40:17;;;;;;;5.93;1.00;;;;;;;14.91;48.14;102085.34;10407417;28;20049;-79
2022/05/28 08:45:19;;;;;;;7.70;1.30;;;;;;;14.57;52.08;102086.94;10400474;28;20049;-79
2022/05/28 08:50:21;;;;;;;5.18;1.30;;;;;;;16.09;52.42;102080.41;10398701;28;20045;-80
2022/05/28 08:55:26;;;;;;;6.40;1.50;;;;;;;16.52;48.78;102079.53;10400163;28;20063;-81
2022/05/28 09:00:45;;;;;;;7.82;1.25;;;;;;;16.49;51.40;102076.03;10391589;28;20041;-81
2022/05/28 09:06:10;;;;;;;8.90;1.85;;;;;;;14.40;56.18;102080.44;10413829;28;20087;-81
2022/05/28 09:11:41;;;;;;;8.75;2.00;;;;;;;16.03;55.01;102080.28;10411521;28;20033;-80
2022/05/28 09:16:46;;;;;;;8.10;1.17;;;;;;;16.43;50.75;102075.91;10411371;28;20045;-81
2022/05/28 09:21:48;;;;;;;5.75;1.30;;;;;;;16.41;47.95;102067.22;10404768;28;20049;-80
2022/05/28 09:27:04;;;;;;;6.32;1.10;;;;;;;16.94;49.11;102073.47;10413471;28;20045;-80
2022/05/28 09:32:27;;;;;;;7.60;1.38;;;;;;;15.47;50.61;102078.94;10410423;28;20448;-80
2022/05/28 09:37:38;;;;;;;6.68;1.55;;;;;;;15.32;52.38;102078.56;10401399;28;20053;-81
2022/05/28 09:43:13;;;;;;;6.93;1.60;;;;;;;16.68;48.25;102078.16;10398371;28;20045;-80
2022/05/28 09:48:24;;;;;;;7.35;1.63;;;;;;;15.25;48.35;102087.03;10409871;28;20104;-80
2022/05/28 09:58:55;;;;;;;5.07;1.08;;;;;;;16.50;48.52;102072.59;10411019;28;19921;-80
2022/05/28 10:09:31;;;;;;;4.78;0.90;;;;;;;17.00;43.19;102068.38;10411569;28;20046;-80
2022/05/28 10:14:33;;;;;;;4.03;1.10;;;;;;;16.98;43.29;102070.06;10414668;28;20084;-78
2022/05/28 10:19:40;;;;;;;7.13;2.20;;;;;;;15.32;42.74;102074.28;10414899;28;20091;-82
2022/05/28 10:24:45;;;;;;;3.78;0.50;;;;;;;16.29;39.53;102073.03;10415657;28;20095;-82
2022/05/28 10:29:49;;;;;;;6.60;1.30;;;;;;;17.00;39.75;102055.34;10414685;28;20571;-80
2022/05/28 10:35:12;;;;;;;4.72;1.08;;;;;;;17.65;40.85;102045.97;10415462;28;20057;-80
2022/05/28 10:40:23;;;;;;;4.72;1.00;;;;;;;17.71;39.87;102045.19;10452766;28;20109;-80
2022/05/28 10:45:52;;;;;;;4.38;1.13;;;;;;;17.76;39.37;102057.41;10456737;28;20049;-80
2022/05/28 10:51:10;;;;;;;6.03;1.20;;;;;;;17.37;43.00;102042.94;10419919;28;20046;-81
2022/05/28 10:56:21;;;;;;;5.50;1.00;;;;;;;16.83;42.98;102057.59;10414415;28;20488;-80
2022/05/28 11:02:06;;;;;;;8.38;1.10;;;;;;;16.63;38.73;102052.03;10399855;28;20125;-81
2022/05/28 11:07:27;;;;;;;6.20;1.20;;;;;;;17.18;39.92;102046.06;10415609;28;20124;-80
2022/05/28 11:12:53;;;;;;;4.05;1.30;;;;;;;17.65;38.46;102026.84;10407489;28;20045;-81
2022/05/28 11:18:21;;;;;;;4.68;1.10;;;;;;;17.63;40.33;102039.84;10411092;28;20061;-80
2022/05/28 11:23:44;;;;;;;8.68;1.40;;;;;;;15.96;42.40;102052.41;10412122;28;20095;-81
2022/05/28 11:29:20;;;;;;;3.65;1.05;;;;;;;17.23;42.91;102039.25;10412595;28;20501;-81
2022/05/28 11:34:32;;;;;;;3.55;0.57;;;;;;;17.22;36.84;102047.91;10397673;28;20509;-80
2022/05/28 11:39:45;;;;;;;6.35;1.00;;;;;;;17.88;37.50;102029.78;10391944;28;20041;-81
2022/05/28 11:44:52;;;;;;;6.80;1.23;;;;;;;18.13;38.65;102024.91;10397263;28;20053;-80
2022/05/28 11:55:41;;;;;;;6.45;1.15;;;;;;;16.89;40.14;102028.19;10411193;28;20037;-80
2022/05/28 12:00:50;;;;;;;4.75;1.10;;;;;;;16.53;41.70;102030.13;10409557;28;20033;-80
2022/05/28 12:06:08;;;;;;;4.90;1.20;;;;;;;15.85;42.86;102021.84;10375896;28;20053;-80
2022/05/28 12:11:19;;;;;;;10.18;1.30;;;;;;;15.66;41.53;102023.13;10369742;28;20049;-79
2022/05/28 12:16:31;;;;;;;6.10;1.20;;;;;;;16.77;40.70;101998.53;10370342;28;20117;-80
2022/05/28 12:21:37;;;;;;;4.85;1.20;;;;;;;15.61;42.21;102008.25;10378247;28;20041;-80
2022/05/28 12:26:48;;;;;;;5.13;1.48;;;;;;;15.54;44.58;102013.31;10419388;28;20465;-79
2022/05/28 12:31:50;;;;;;;4.30;1.17;;;;;;;16.63;40.41;101994.78;10401577;28;20564;-79
2022/05/28 12:36:55;;;;;;;6.15;1.23;;;;;;;17.09;38.78;101985.19;10419064;28;20049;-81
2022/05/28 12:41:59;;;;;;;5.72;1.27;;;;;;;17.28;40.07;101975.06;10417544;28;20056;-80
2022/05/28 12:47:01;;;;;;;6.95;1.48;;;;;;;16.24;39.75;101995.78;10418105;28;20049;-79
2022/05/28 12:52:30;;;;;;;5.65;0.95;;;;;;;17.25;39.51;101980.22;10417397;28;20370;-80
2022/05/28 12:57:35;;;;;;;4.40;1.17;;;;;;;16.94;35.89;101982.34;10417768;28;20045;-80
2022/05/28 13:02:43;;;;;;;5.38;1.00;;;;;;;17.68;35.89;101978.25;10415363;28;20547;-80
2022/05/28 13:07:58;;;;;;;8.75;1.25;;;;;;;17.96;37.16;101968.22;10377232;28;20052;-80
2022/05/28 13:13:27;;;;;;;5.75;1.20;;;;;;;17.58;35.88;101979.84;10386782;28;20029;-80
2022/05/28 13:19:15;;;;;;;7.67;1.13;;;;;;;16.94;36.73;101978.00;10405569;28;20115;-80
2022/05/28 13:24:47;;;;;;;4.47;1.00;;;;;;;17.59;37.62;101965.09;10415538;28;20421;-80
2022/05/28 13:30:28;;;;;;;3.80;1.02;;;;;;;17.33;32.84;101962.13;10416210;28;20069;-83
2022/05/28 13:35:49;;;;;;;5.23;1.20;;;;;;;17.54;35.08;101967.63;10399012;28;20087;-80
2022/05/28 13:40:51;;;;;;;4.60;1.08;;;;;;;17.49;35.58;101963.22;10399080;28;20126;-81
2022/05/28 13:46:00;;;;;;;2.58;0.65;;;;;;;15.94;36.88;101971.78;10392870;28;20042;-80
2022/05/28 13:51:08;;;;;;;4.25;0.80;;;;;;;16.79;37.59;101964.72;10406694;28;20065;-79
2022/05/28 13:56:18;;;;;;;4.70;1.30;;;;;;;16.66;35.08;101958.41;10387683;28;20054;-80
2022/05/28 14:01:23;;;;;;;4.00;1.10;;;;;;;16.80;37.96;101950.84;10373988;28;20112;-79
2022/05/28 14:06:28;;;;;;;5.13;1.35;;;;;;;16.28;37.89;101958.56;10407348;28;20054;-81
2022/05/28 14:11:34;;;;;;;5.70;0.90;;;;;;;16.95;38.34;101937.22;10410624;28;20041;-79
2022/05/28 14:16:39;;;;;;;4.65;1.08;;;;;;;16.80;37.42;101951.72;10400727;28;20053;-79
2022/05/28 14:21:53;;;;;;;2.55;0.75;;;;;;;16.98;37.18;101950.31;10378243;28;20248;-80
2022/05/28 14:26:59;;;;;;;3.88;1.13;;;;;;;17.09;34.33;101948.72;10381041;28;20042;-80
2022/05/28 14:32:05;;;;;;;2.78;0.70;;;;;;;16.83;35.58;101940.47;10387321;28;20555;-80
2022/05/28 14:37:22;;;;;;;3.92;0.70;;;;;;;16.83;33.35;101953.47;10391751;28;20038;-79
2022/05/28 14:42:37;;;;;;;5.03;1.00;;;;;;;16.76;35.00;101949.03;10394551;28;20137;-80
2022/05/28 14:47:38;;;;;;;1.80;0.73;;;;;;;15.70;34.53;101964.31;10384702;28;20493;-79
2022/05/28 14:52:40;;;;;;;3.92;0.85;;;;;;;16.18;35.35;101955.81;10403825;28;20046;-79
2022/05/28 14:57:46;;;;;;;4.43;0.95;;;;;;;15.51;34.65;101950.94;10389986;28;20092;-80
2022/05/28 15:02:50;;;;;;;5.55;0.82;;;;;;;16.28;36.90;101962.06;10385375;28;20030;-79
2022/05/28 15:07:57;;;;;;;5.55;0.80;;;;;;;16.14;37.99;101951.41;10392923;28;20058;-80
2022/05/28 15:13:18;;;;;;;3.10;0.75;;;;;;;16.30;37.59;101936.09;10402386;28;20042;-79
2022/05/28 15:18:22;;;;;;;4.53;1.17;;;;;;;15.92;40.44;101946.59;10425427;28;20050;-79
2022/05/28 15:23:30;;;;;;;4.28;0.82;;;;;;;15.71;41.12;101947.88;10393194;28;20045;-80
2022/05/28 15:28:41;;;;;;;5.70;0.93;;;;;;;15.63;42.09;101937.34;10393535;28;20374;-80
2022/05/28 15:33:42;;;;;;;6.95;1.17;;;;;;;15.30;44.59;101940.06;10390849;28;20045;-80
2022/05/28 15:38:47;;;;;;;6.43;1.23;;;;;;;15.18;43.94;101936.34;10397871;28;20087;-80
2022/05/28 15:43:48;;;;;;;7.47;1.20;;;;;;;15.09;44.22;101943.91;10374529;28;20046;-80
2022/05/28 15:48:51;;;;;;;6.57;1.30;;;;;;;15.49;45.81;101936.13;10393690;28;20053;-80
2022/05/28 15:53:53;;;;;;;4.60;1.42;;;;;;;15.41;45.93;101938.59;10391647;28;20108;-81
2022/05/28 15:58:54;;;;;;;8.30;1.50;;;;;;;15.36;46.65;101940.22;10394739;28;20045;-79
2022/05/28 16:03:56;;;;;;;7.22;1.60;;;;;;;15.28;46.71;101936.56;10387434;28;20107;-81
2022/05/28 16:09:01;;;;;;;5.15;1.10;;;;;;;15.28;48.70;101928.75;10395717;28;20481;-80
2022/05/28 16:14:04;;;;;;;8.93;1.48;;;;;;;15.25;46.58;101915.69;10409048;28;20048;-81
2022/05/28 16:19:06;;;;;;;4.32;1.10;;;;;;;15.19;42.27;101912.13;10412145;28;20045;-81
2022/05/28 16:24:08;;;;;;;5.07;1.17;;;;;;;15.38;43.66;101912.53;10411551;28;20132;-79
2022/05/28 16:29:14;;;;;;;4.32;0.80;;;;;;;15.73;43.07;101904.63;10407224;28;20107;-79
2022/05/28 16:34:17;;;;;;;4.03;0.88;;;;;;;15.32;42.80;101902.00;10401559;28;20042;-79
2022/05/28 16:39:18;;;;;;;2.60;0.73;;;;;;;15.45;42.00;101901.44;10398425;28;20045;-79
2022/05/28 16:44:20;;;;;;;5.22;1.00;;;;;;;15.23;42.33;101906.16;10398171;28;20046;-79
2022/05/28 16:49:21;;;;;;;9.30;1.52;;;;;;;15.11;46.08;101902.44;10392945;28;20044;-79
2022/05/28 16:54:23;;;;;;;6.07;1.33;;;;;;;14.66;46.68;101904.81;10379085;28;20089;-79
2022/05/28 16:59:26;;;;;;;4.32;1.13;;;;;;;14.80;46.75;101907.75;10375073;28;20041;-77
2022/05/28 17:04:28;;;;;;;7.85;1.05;;;;;;;15.17;47.34;101906.03;10373507;28;20045;-78
2022/05/28 17:09:30;;;;;;;4.05;0.93;;;;;;;14.90;47.94;101914.94;10382348;28;20045;-79
2022/05/28 17:14:31;;;;;;;8.57;1.10;;;;;;;14.31;47.60;101911.66;10400181;28;20041;-78
2022/05/28 17:19:34;;;;;;;5.05;1.33;;;;;;;14.16;48.24;101907.81;10388200;28;20050;-79
2022/05/28 17:24:37;;;;;;;7.00;1.20;;;;;;;14.19;48.58;101902.69;10407299;28;20045;-79
2022/05/28 17:29:39;;;;;;;5.10;1.30;;;;;;;14.41;48.07;101906.75;10397944;28;20049;-78
2022/05/28 17:34:44;;;;;;;5.85;1.08;;;;;;;15.06;47.05;101889.34;10402668;28;20038;-78
2022/05/28 17:39:46;;;;;;;6.63;1.08;;;;;;;14.96;46.03;101898.63;10392016;28;20048;-78
2022/05/28 17:44:49;;;;;;;3.10;0.80;;;;;;;14.80;44.05;101897.38;10397537;28;20053;-79
2022/05/28 17:49:52;;;;;;;4.43;0.77;;;;;;;14.51;42.06;101905.28;10390356;28;20460;-78
2022/05/28 17:54:54;;;;;;;5.20;0.85;;;;;;;14.28;41.92;101913.31;10384719;28;20053;-80
2022/05/28 17:59:56;;;;;;;5.25;0.90;;;;;;;14.43;43.65;101906.78;10392812;28;20409;-78
2022/05/28 18:04:59;;;;;;;3.80;0.77;;;;;;;14.33;43.27;101897.88;10397927;28;20481;-77
2022/05/28 18:10:02;;;;;;;2.83;0.52;;;;;;;14.28;44.74;101902.94;10396466;28;20077;-80
2022/05/28 18:15:04;;;;;;;5.43;0.90;;;;;;;13.74;45.14;101908.34;10399233;28;20041;-80
2022/05/28 18:20:11;;;;;;;5.20;0.88;;;;;;;13.36;48.32;101901.19;10401194;28;20054;-79
2022/05/28 18:25:13;;;;;;;7.32;1.00;;;;;;;13.17;50.92;101900.63;10375138;28;20099;-79
2022/05/28 18:30:18;;;;;;;10.80;1.42;;;;;;;13.31;51.86;101890.69;10383867;28;20049;-80
2022/05/28 18:35:20;;;;;;;6.55;1.00;;;;;;;13.40;51.78;101889.25;10394026;28;20390;-80
2022/05/28 18:40:35;;;;;;;3.60;0.70;;;;;;;13.40;52.58;101891.81;10406902;28;20057;-80
2022/05/28 18:45:44;;;;;;;5.05;1.00;;;;;;;12.97;50.90;101889.66;10403411;28;20374;-80
2022/05/28 18:50:46;;;;;;;4.07;0.88;;;;;;;12.68;52.08;101888.69;10397008;28;20439;-80
2022/05/28 18:55:50;;;;;;;5.70;0.90;;;;;;;12.61;52.69;101890.22;10392829;28;20049;-79
2022/05/28 19:00:52;;;;;;;3.70;0.65;;;;;;;12.33;53.50;101881.50;10457013;28;20038;-78
2022/05/28 19:05:53;;;;;;;8.32;0.90;;;;;;;12.21;53.85;101884.53;10403679;28;20044;-80
2022/05/28 19:10:55;;;;;;;3.65;1.10;;;;;;;12.11;54.13;101879.00;10403976;28;20037;-78
2022/05/28 19:15:57;;;;;;;5.68;0.93;;;;;;;12.12;54.61;101879.06;10402485;28;20045;-80
2022/05/28 19:21:00;;;;;;;3.60;0.80;;;;;;;11.91;54.91;101889.47;10400947;28;20136;-81
2022/05/28 19:31:39;;;;;;;3.75;0.90;;;;;;;11.63;56.81;101875.56;10412623;28;20511;-79
2022/05/28 19:36:40;;;;;;;6.28;0.95;;;;;;;11.43;58.18;101888.56;10412652;28;20041;-80
2022/05/28 19:41:43;;;;;;;4.18;0.88;;;;;;;11.49;58.23;101887.06;10408281;28;20057;-80
2022/05/28 19:46:48;;;;;;;6.95;1.20;;;;;;;11.35;59.27;101886.53;10412638;28;20049;-80
2022/05/28 19:51:55;;;;;;;6.45;1.48;;;;;;;11.06;60.00;101889.72;10413448;28;20048;-80
2022/05/28 19:56:56;;;;;;;8.13;1.27;;;;;;;11.20;59.54;101887.69;10411866;28;20053;-80
2022/05/28 20:02:05;;;;;;;6.32;2.05;;;;;;;11.20;60.18;101889.41;10415874;28;20067;-81
2022/05/28 20:07:07;;;;;;;4.22;1.10;;;;;;;11.08;61.31;101889.81;10414614;28;20501;-81
2022/05/28 20:12:09;;;;;;;6.25;0.80;;;;;;;10.85;62.86;101900.06;10412585;28;20041;-79
2022/05/28 20:17:12;;;;;;;4.10;0.90;;;;;;;10.71;61.20;101911.50;10414008;28;20045;-80
2022/05/28 20:22:24;;;;;;;5.25;1.27;;;;;;;10.32;64.94;101909.84;10412620;28;20100;-80
2022/05/28 20:27:26;;;;;;;5.70;0.90;;;;;;;10.19;69.39;101892.09;10404112;28;20048;-81
2022/05/28 20:32:29;;;;;;;3.78;1.30;;;;;;;10.46;68.80;101892.44;10412281;28;20504;-80
2022/05/28 20:37:31;;;;;;;3.72;0.70;;;;;;;10.45;68.43;101890.66;10396030;28;20045;-81
2022/05/28 20:42:32;;;;;;;3.65;1.08;;;;;;;10.46;68.09;101883.00;10408643;28;20100;-81
2022/05/28 20:47:38;;;;;;;2.20;0.63;;;;;;;10.49;69.15;101859.09;10417276;28;20042;-80
2022/05/28 20:52:47;;;;;;;7.00;1.83;;;;;;;10.10;70.19;101872.84;10411842;28;20038;-80
2022/05/28 20:57:51;;;;;;;2.27;0.90;;;;;;;10.02;70.35;101874.22;10418470;28;20045;-81
2022/05/28 21:02:53;;;;;;;4.18;1.67;;;;;;;10.10;69.27;101865.13;10406615;28;20050;-80
2022/05/28 21:07:55;;;;;;;4.07;1.13;;;;;;;10.14;68.61;101848.13;10408719;28;20448;-80
2022/05/28 21:12:57;;;;;;;2.97;1.10;;;;;;;10.04;69.26;101852.00;10415273;28;20045;-81
2022/05/28 21:18:28;;;;;;;6.47;1.65;;;;;;;9.89;70.48;101848.75;10415884;28;20049;-80
2022/05/28 21:23:30;;;;;;;5.45;1.30;;;;;;;9.76;70.85;101845.66;10416901;28;20115;-80
2022/05/28 21:34:19;;;;;;;4.45;1.65;;;;;;;9.45;71.77;101849.41;10404930;28;20045;-81
2022/05/28 21:39:20;;;;;;;3.65;1.40;;;;;;;9.44;71.72;101846.78;10422352;28;20054;-80
2022/05/28 21:44:23;;;;;;;4.03;1.40;;;;;;;9.31;71.46;101835.03;10408640;28;20100;-80
2022/05/28 21:49:25;;;;;;;4.00;1.38;;;;;;;9.23;71.19;101837.28;10406106;28;20049;-80
2022/05/28 21:54:35;;;;;;;4.78;1.40;;;;;;;9.21;71.53;101829.47;10398359;28;20041;-80
2022/05/28 21:59:37;;;;;;;7.45;1.58;;;;;;;9.04;72.42;101827.81;10403879;28;20061;-81
2022/05/28 22:04:43;;;;;;;5.70;1.80;;;;;;;8.99;72.16;101826.69;10400945;28;20054;-80
2022/05/28 22:09:44;;;;;;;6.95;1.48;;;;;;;8.93;73.04;101821.28;10391045;28;20107;-80
2022/05/28 22:14:46;;;;;;;6.22;1.70;;;;;;;8.80;72.67;101820.69;10406703;28;20543;-80
2022/05/28 22:19:49;;;;;;;2.00;1.25;;;;;;;8.78;73.44;101812.03;10409439;28;20049;-80
2022/05/28 22:24:56;;;;;;;3.63;1.60;;;;;;;8.73;73.87;101809.22;10408301;28;20113;-80
2022/05/28 22:29:57;;;;;;;7.88;1.85;;;;;;;8.59;74.29;101794.84;10398194;28;20056;-80
2022/05/28 22:34:59;;;;;;;2.95;1.55;;;;;;;8.48;74.17;101794.31;10403179;28;20091;-80
2022/05/28 22:40:03;;;;;;;5.85;1.95;;;;;;;8.29;74.94;101804.47;10404976;28;20049;-80
2022/05/28 22:45:19;;;;;;;5.72;1.58;;;;;;;8.41;75.12;101789.66;10411434;28;20507;-80
2022/05/28 22:50:24;;;;;;;8.20;1.83;;;;;;;8.42;74.69;101783.72;10413482;28;20045;-80
2022/05/28 22:55:26;;;;;;;7.03;2.05;;;;;;;8.35;75.49;101779.09;10419397;28;20050;-80
2022/05/28 23:00:29;;;;;;;5.00;1.73;;;;;;;8.12;76.05;101771.13;10458674;28;20060;-80
2022/05/28 23:05:32;;;;;;;5.68;1.98;;;;;;;8.14;75.98;101763.50;10435574;28;20042;-80
2022/05/28 23:10:57;;;;;;;3.53;1.70;;;;;;;8.14;75.81;101761.84;10412820;28;20095;-80
2022/05/28 23:16:00;;;;;;;7.47;1.92;;;;;;;8.13;75.80;101757.50;10404468;28;20050;-80
2022/05/28 23:21:20;;;;;;;6.47;2.10;;;;;;;8.06;75.82;101753.75;10416431;28;20060;-80
2022/05/28 23:26:21;;;;;;;8.85;2.17;;;;;;;7.90;76.17;101744.41;10410715;28;20061;-80
2022/05/28 23:31:28;;;;;;;5.55;1.65;;;;;;;7.90;76.42;101744.41;10402105;28;20095;-80
2022/05/28 23:36:41;;;;;;;4.30;1.98;;;;;;;7.86;77.26;101744.16;10401645;28;20091;-80
2022/05/28 23:41:43;;;;;;;3.95;1.40;;;;;;;7.86;77.06;101737.34;10393641;28;20056;-80
2022/05/28 23:46:47;;;;;;;6.10;1.92;;;;;;;7.86;78.19;101737.34;10393680;28;20049;-80
2022/05/28 23:51:50;;;;;;;8.32;2.15;;;;;;;7.90;77.59;101731.56;10412271;28;20049;-80
2022/05/28 23:56:54;;;;;;;8.35;2.00;;;;;;;7.90;78.17;101722.97;10412254;28;20049;-80
